Etusivu
METAR-TAF:

METAR-TAF

Lentoasemat :

Oulun lentoasema

Oulu, Suomi

Leveyspiiri: 64-56N, Pituuspiiri: 025-22E, korkeus merenpinnasta: 12 m

Tämänhetkinen sää

Tämä raportti tehtiin 24 minuuttia sitten, kello 17.20 UTC
Tuuli 8 kn lännestä
Lämpötila 1°C
Kosteus 86%
Ilmanpaine 1022 hPa
Näkyvyys 10 km tai enemmän
ei pilviä alle 1500 m:ssä eikä cumulonimbus-pilviä

METAR: EFOU 211720Z AUTO 28008KT CAVOK 01/M01 Q1022

Aika: 19:44 (17:44 UTC)

Sääennuste

Tämä raportti tehtiin 3 tuntia ja 11 minuuttia sitten, kello 14.33 UTC
Ennuste voimassa 21. päivästä klo 15 UTC - 22. päivään klo 15 UTC
Tuuli 9 kn lännestä
Näkyvyys 10 km tai enemmän
Hajonneita pilviä 4000 ft:n korkeudessa
Ajoittain
21. päivästä klo 15 UTC - 21. päivään klo 18 UTC
Hajonneita pilviä 800 ft:n korkeudessa

TAF: EFOU 211433Z 2115/2215 28009KT 9999 BKN040 TEMPO 2115/2118 BKN008

Säähavainnot ja -ennusteet yli 4000 lentoasemalta (METAR- ja TAF-raportit).

Käytössä olevat sääasemat on merkitty karttaan keltaisilla ja punaisilla pisteillä.

Aseta hiiri pisteen päälle nähdäksesi sääaseman nimen.

Klikkaa sitten nähdäksesi säähavainnot ja -ennusteet.

Kartan vaihtaminen: klikkaa mustalla rastilla varustettuja vihreitä pisteitä, niin voit zoomata sisään; viivalla varustettua vihreää pistettä, niin voit zoomata ulos tai vihreitä nuolia, niin pääset viereisille kartoille.


METAR-TAF: